Ladjarii — YT2443 — position and weather

sailwx.info

Track history (hours):
 
Tides and Currents Weather Stations Pressure Air Temp Water Temp Dewpoint Dewpoint Depression Visibility Wind Speed Wind Dir Waves Ship Positions

Ladjarii

Last reported at 2018-Jan-19 03:31 UTC. Time now 2018-Jan-19 03:49 UTC.
Position N 45°16' E 019°52'.

Length 90 m; draft 2.1 m.

Type: Tanker. MMSI: 279202443.

Date/timePositionNaut miles runAvg speedWind from/ knotsBaromVisibWave heightAir tempDewpointWater temp
2018-Jan-19 03:31N 45°16' E 019°52'0 0.0
2018-Jan-19 02:46N 45°16' E 019°52'0 0.0
2018-Jan-19 02:30N 45°16' E 019°52'0 0.0
2018-Jan-19 01:56N 45°16' E 019°52'0 0.0
2018-Jan-19 01:31N 45°16' E 019°52'0 0.0
2018-Jan-19 00:40N 45°16' E 019°52'0 0.0
2018-Jan-19 00:28N 45°16' E 019°52'0 0.0
2018-Jan-18 23:49N 45°16' E 019°52'0 0.0
2018-Jan-18 23:31N 45°16' E 019°52'0 0.0
2018-Jan-18 22:45N 45°16' E 019°52'0 0.0
2018-Jan-18 22:31N 45°16' E 019°52'0 0.0
2018-Jan-18 21:42N 45°16' E 019°52'0 0.0
2018-Jan-18 21:29N 45°16' E 019°52'0 0.0
2018-Jan-18 20:59N 45°16' E 019°52'0 0.0
2018-Jan-18 20:24N 45°16' E 019°52'0 0.0
2018-Jan-18 19:42N 45°16' E 019°52'0 0.0
2018-Jan-18 19:29N 45°16' E 019°52'0 0.0
2018-Jan-18 19:00N 45°16' E 019°52'0 0.0
2018-Jan-18 18:30N 45°16' E 019°52'0 0.0
2018-Jan-18 18:00N 45°16' E 019°52'0 0.0
2018-Jan-18 17:24N 45°16' E 019°52'0 0.0
2018-Jan-18 16:44N 45°16' E 019°52'0 0.0
2018-Jan-18 16:31N 45°16' E 019°52'0 0.0
2018-Jan-18 15:55N 45°16' E 019°52'0 0.0
2018-Jan-18 15:23N 45°16' E 019°52'0 0.2
2018-Jan-18 14:50N 45°16' E 019°51'0 0.3
2018-Jan-18 14:30N 45°16' E 019°51'0 0.0
2018-Jan-18 14:00N 45°16' E 019°51'0 0.0
2018-Jan-18 13:27N 45°16' E 019°51'0 0.1
2018-Jan-18 13:00N 45°16' E 019°51'3 3.4
2018-Jan-18 12:03N 45°14' E 019°55'0 0.6
2018-Jan-18 11:54N 45°14' E 019°55'4 5.5
2018-Jan-18 11:14N 45°11' E 019°58'0 2.0
2018-Jan-18 11:00N 45°11' E 019°59'2 4.6
2018-Jan-18 10:30N 45°10' E 020°02'4 6.2
2018-Jan-18 09:56N 45°10' E 020°07'1 2.2
2018-Jan-18 09:28N 45°10' E 020°08'2 4.0
2018-Jan-18 09:00N 45°11' E 020°11'2 4.2
2018-Jan-18 08:30N 45°10' E 020°14'2 4.4
2018-Jan-18 08:00N 45°09' E 020°16'2 4.2
2018-Jan-18 07:29N 45°07' E 020°18'3 4.0
2018-Jan-18 06:36N 45°04' E 020°20'0 4.2
2018-Jan-18 06:30N 45°04' E 020°21'2 4.3
2018-Jan-18 06:00N 45°02' E 020°22'2 3.6
2018-Jan-18 05:30N 45°00' E 020°20'2 4.2
2018-Jan-18 05:00N 44°59' E 020°18'2 4.3
2018-Jan-18 04:30N 44°57' E 020°18'2 4.6
2018-Jan-18 04:00N 44°55' E 020°20'2 4.5
2018-Jan-18 03:30N 44°53' E 020°21'2 4.3
2018-Jan-18 03:00N 44°52' E 020°23'2 4.4
2018-Jan-18 02:30N 44°51' E 020°26'2 4.1
2018-Jan-18 02:00N 44°50' E 020°29'2 4.3
2018-Jan-18 01:30N 44°50' E 020°32'2 4.7
2018-Jan-18 01:00N 44°51' E 020°35'3 3.0
2018-Jan-18 00:00N 44°50' E 020°39'0 2.0
2018-Jan-17 23:58N 44°50' E 020°39'  
2018-Jan-12 15:00N 44°41' E 020°56'0 0.0
2018-Jan-12 14:30N 44°41' E 020°56'0 0.1
2018-Jan-12 14:00N 44°41' E 020°56'3 6.3
2018-Jan-12 13:30N 44°40' E 020°52'5 9.1
2018-Jan-12 13:00N 44°40' E 020°46'4 8.9
2018-Jan-12 12:30N 44°43' E 020°41'4 8.7
2018-Jan-12 12:00N 44°46' E 020°38'3 6.9
2018-Jan-12 11:30N 44°50' E 020°39'0 0.3
2018-Jan-12 11:00N 44°50' E 020°39'0 0.0
2018-Jan-12 10:30N 44°50' E 020°39'0 0.0
2018-Jan-12 10:00N 44°50' E 020°39'0 0.0
2018-Jan-12 09:30N 44°50' E 020°39'0 0.0
2018-Jan-12 09:00N 44°50' E 020°39'0 0.0
2018-Jan-12 08:28N 44°50' E 020°39'0 0.0
2018-Jan-12 08:00N 44°50' E 020°39'0 0.1
2018-Jan-12 07:30N 44°50' E 020°39'0 0.0
2018-Jan-12 07:00N 44°50' E 020°39'0 0.0
2018-Jan-12 06:30N 44°50' E 020°39'0 0.0
2018-Jan-12 06:00N 44°50' E 020°39'0 0.0
2018-Jan-12 05:30N 44°50' E 020°39'0 0.0
2018-Jan-12 05:00N 44°50' E 020°39'0 0.0
2018-Jan-12 04:30N 44°50' E 020°39'0 0.0
2018-Jan-12 04:00N 44°50' E 020°39'0 0.0
2018-Jan-12 03:30N 44°50' E 020°39'0 0.0
2018-Jan-12 03:00N 44°50' E 020°39'0 0.0
2018-Jan-12 02:30N 44°50' E 020°39'0 0.0
2018-Jan-12 02:00N 44°50' E 020°39'0 0.0
2018-Jan-12 01:30N 44°50' E 020°39'0 0.0
2018-Jan-12 01:00N 44°50' E 020°39'0 0.0
2018-Jan-12 00:31N 44°50' E 020°39'0 0.0
2018-Jan-12 00:01N 44°50' E 020°39'0 0.0
2018-Jan-11 23:31N 44°50' E 020°39'0 0.0
2018-Jan-11 23:01N 44°50' E 020°39'0 0.0
2018-Jan-11 22:31N 44°50' E 020°39'0 0.0
2018-Jan-11 22:01N 44°50' E 020°39'0 0.0
2018-Jan-11 21:30N 44°50' E 020°39'0 0.0
2018-Jan-11 21:00N 44°50' E 020°39'0 0.0
2018-Jan-11 20:31N 44°50' E 020°39'0 0.0
2018-Jan-11 20:01N 44°50' E 020°39'0 0.0
2018-Jan-11 19:31N 44°50' E 020°39'0 0.0
2018-Jan-11 19:01N 44°50' E 020°39'0 0.1
2018-Jan-11 18:31N 44°50' E 020°39'4 7.8
2018-Jan-11 18:01N 44°51' E 020°33'5 9.8
2018-Jan-11 17:30N 44°50' E 020°27'510.1
2018-Jan-11 17:00N 44°54' E 020°21'510.5
2018-Jan-11 16:30N 44°58' E 020°17'5 9.4
2018-Jan-11 16:00N 45°02' E 020°22'510.5
2018-Jan-11 15:30N 45°06' E 020°18'510.4
2018-Jan-11 15:00N 45°10' E 020°13'5 9.9
2018-Jan-11 14:30N 45°10' E 020°06'610.5
2018-Jan-11 13:58N 45°11' E 019°58'9 0.2
2018-Jan-09 16:19N 45°11' E 020°11'2 4.5
2018-Jan-09 15:59N 45°10' E 020°13'3 4.6
2018-Jan-09 15:27N 45°09' E 020°16'6 4.5
2018-Jan-09 14:10N 45°04' E 020°21'1 4.7
2018-Jan-09 14:00N 45°03' E 020°21'2 4.7
2018-Jan-09 13:31N 45°01' E 020°22'2 4.0
2018-Jan-09 13:01N 44°60' E 020°19'2 4.4
2018-Jan-09 12:31N 44°58' E 020°17'2 4.5
2018-Jan-09 12:01N 44°56' E 020°18'2 4.7
2018-Jan-09 11:30N 44°54' E 020°20'2 4.9
2018-Jan-09 11:01N 44°52' E 020°22'2 4.6
2018-Jan-09 10:31N 44°51' E 020°25'2 4.8
2018-Jan-09 10:01N 44°50' E 020°28'2 4.2
2018-Jan-09 09:31N 44°50' E 020°31'2 4.7
2018-Jan-09 09:01N 44°51' E 020°34'2 4.5
2018-Jan-09 08:30N 44°51' E 020°37'2 3.5
2018-Jan-09 08:00N 44°50' E 020°39'0 0.0
2018-Jan-09 07:30N 44°50' E 020°39'0 0.0
2018-Jan-09 07:00N 44°50' E 020°39'0 0.0
2018-Jan-09 06:30N 44°50' E 020°39'0 0.0
2018-Jan-09 06:00N 44°50' E 020°39'0 0.0
2018-Jan-09 05:30N 44°50' E 020°39'0 0.0
2018-Jan-09 05:00N 44°50' E 020°39'0 0.0
2018-Jan-09 04:30N 44°50' E 020°39'0 0.0
2018-Jan-09 04:00N 44°50' E 020°39'  
Track history (hours):
 
Tides and Currents Weather Stations Pressure Air Temp Water Temp Dewpoint Dewpoint Depression Visibility Wind Speed Wind Dir Waves Ship Positions

Ladjarii

Last reported at 2018-Jan-19 03:31 UTC. Time now 2018-Jan-19 03:49 UTC.
Position N 45°16' E 019°52'.

Length 90 m; draft 2.1 m.

Type: Tanker. MMSI: 279202443.

Date/timePositionNaut miles runAvg speedWind from/ knotsBaromVisibWave heightAir tempDewpointWater temp
2018-Jan-19 03:31N 45°16' E 019°52'0 0.0
2018-Jan-19 02:46N 45°16' E 019°52'0 0.0
2018-Jan-19 02:30N 45°16' E 019°52'0 0.0
2018-Jan-19 01:56N 45°16' E 019°52'0 0.0
2018-Jan-19 01:31N 45°16' E 019°52'0 0.0
2018-Jan-19 00:40N 45°16' E 019°52'0 0.0
2018-Jan-19 00:28N 45°16' E 019°52'0 0.0
2018-Jan-18 23:49N 45°16' E 019°52'0 0.0
2018-Jan-18 23:31N 45°16' E 019°52'0 0.0
2018-Jan-18 22:45N 45°16' E 019°52'0 0.0
2018-Jan-18 22:31N 45°16' E 019°52'0 0.0
2018-Jan-18 21:42N 45°16' E 019°52'0 0.0
2018-Jan-18 21:29N 45°16' E 019°52'0 0.0
2018-Jan-18 20:59N 45°16' E 019°52'0 0.0
2018-Jan-18 20:24N 45°16' E 019°52'0 0.0
2018-Jan-18 19:42N 45°16' E 019°52'0 0.0
2018-Jan-18 19:29N 45°16' E 019°52'0 0.0
2018-Jan-18 19:00N 45°16' E 019°52'0 0.0
2018-Jan-18 18:30N 45°16' E 019°52'0 0.0
2018-Jan-18 18:00N 45°16' E 019°52'0 0.0
2018-Jan-18 17:24N 45°16' E 019°52'0 0.0
2018-Jan-18 16:44N 45°16' E 019°52'0 0.0
2018-Jan-18 16:31N 45°16' E 019°52'0 0.0
2018-Jan-18 15:55N 45°16' E 019°52'0 0.0
2018-Jan-18 15:23N 45°16' E 019°52'0 0.2
2018-Jan-18 14:50N 45°16' E 019°51'0 0.3
2018-Jan-18 14:30N 45°16' E 019°51'0 0.0
2018-Jan-18 14:00N 45°16' E 019°51'0 0.0
2018-Jan-18 13:27N 45°16' E 019°51'0 0.1
2018-Jan-18 13:00N 45°16' E 019°51'3 3.4
2018-Jan-18 12:03N 45°14' E 019°55'0 0.6
2018-Jan-18 11:54N 45°14' E 019°55'4 5.5
2018-Jan-18 11:14N 45°11' E 019°58'0 2.0
2018-Jan-18 11:00N 45°11' E 019°59'2 4.6
2018-Jan-18 10:30N 45°10' E 020°02'4 6.2
2018-Jan-18 09:56N 45°10' E 020°07'1 2.2
2018-Jan-18 09:28N 45°10' E 020°08'2 4.0
2018-Jan-18 09:00N 45°11' E 020°11'2 4.2
2018-Jan-18 08:30N 45°10' E 020°14'2 4.4
2018-Jan-18 08:00N 45°09' E 020°16'2 4.2
2018-Jan-18 07:29N 45°07' E 020°18'3 4.0
2018-Jan-18 06:36N 45°04' E 020°20'0 4.2
2018-Jan-18 06:30N 45°04' E 020°21'2 4.3
2018-Jan-18 06:00N 45°02' E 020°22'2 3.6
2018-Jan-18 05:30N 45°00' E 020°20'2 4.2
2018-Jan-18 05:00N 44°59' E 020°18'2 4.3
2018-Jan-18 04:30N 44°57' E 020°18'2 4.6
2018-Jan-18 04:00N 44°55' E 020°20'2 4.5
2018-Jan-18 03:30N 44°53' E 020°21'2 4.3
2018-Jan-18 03:00N 44°52' E 020°23'2 4.4
2018-Jan-18 02:30N 44°51' E 020°26'2 4.1
2018-Jan-18 02:00N 44°50' E 020°29'2 4.3
2018-Jan-18 01:30N 44°50' E 020°32'2 4.7
2018-Jan-18 01:00N 44°51' E 020°35'3 3.0
2018-Jan-18 00:00N 44°50' E 020°39'0 2.0
2018-Jan-17 23:58N 44°50' E 020°39'  
2018-Jan-12 15:00N 44°41' E 020°56'0 0.0
2018-Jan-12 14:30N 44°41' E 020°56'0 0.1
2018-Jan-12 14:00N 44°41' E 020°56'3 6.3
2018-Jan-12 13:30N 44°40' E 020°52'5 9.1
2018-Jan-12 13:00N 44°40' E 020°46'4 8.9
2018-Jan-12 12:30N 44°43' E 020°41'4 8.7
2018-Jan-12 12:00N 44°46' E 020°38'3 6.9
2018-Jan-12 11:30N 44°50' E 020°39'0 0.3
2018-Jan-12 11:00N 44°50' E 020°39'0 0.0
2018-Jan-12 10:30N 44°50' E 020°39'0 0.0
2018-Jan-12 10:00N 44°50' E 020°39'0 0.0
2018-Jan-12 09:30N 44°50' E 020°39'0 0.0
2018-Jan-12 09:00N 44°50' E 020°39'0 0.0
2018-Jan-12 08:28N 44°50' E 020°39'0 0.0
2018-Jan-12 08:00N 44°50' E 020°39'0 0.1
2018-Jan-12 07:30N 44°50' E 020°39'0 0.0
2018-Jan-12 07:00N 44°50' E 020°39'0 0.0
2018-Jan-12 06:30N 44°50' E 020°39'0 0.0
2018-Jan-12 06:00N 44°50' E 020°39'0 0.0
2018-Jan-12 05:30N 44°50' E 020°39'0 0.0
2018-Jan-12 05:00N 44°50' E 020°39'0 0.0
2018-Jan-12 04:30N 44°50' E 020°39'0 0.0
2018-Jan-12 04:00N 44°50' E 020°39'0 0.0
2018-Jan-12 03:30N 44°50' E 020°39'0 0.0
2018-Jan-12 03:00N 44°50' E 020°39'0 0.0
2018-Jan-12 02:30N 44°50' E 020°39'0 0.0
2018-Jan-12 02:00N 44°50' E 020°39'0 0.0
2018-Jan-12 01:30N 44°50' E 020°39'0 0.0
2018-Jan-12 01:00N 44°50' E 020°39'0 0.0
2018-Jan-12 00:31N 44°50' E 020°39'0 0.0
2018-Jan-12 00:01N 44°50' E 020°39'0 0.0
2018-Jan-11 23:31N 44°50' E 020°39'0 0.0
2018-Jan-11 23:01N 44°50' E 020°39'0 0.0
2018-Jan-11 22:31N 44°50' E 020°39'0 0.0
2018-Jan-11 22:01N 44°50' E 020°39'0 0.0
2018-Jan-11 21:30N 44°50' E 020°39'0 0.0
2018-Jan-11 21:00N 44°50' E 020°39'0 0.0
2018-Jan-11 20:31N 44°50' E 020°39'0 0.0
2018-Jan-11 20:01N 44°50' E 020°39'0 0.0
2018-Jan-11 19:31N 44°50' E 020°39'0 0.0
2018-Jan-11 19:01N 44°50' E 020°39'0 0.1
2018-Jan-11 18:31N 44°50' E 020°39'4 7.8
2018-Jan-11 18:01N 44°51' E 020°33'5 9.8
2018-Jan-11 17:30N 44°50' E 020°27'510.1
2018-Jan-11 17:00N 44°54' E 020°21'510.5
2018-Jan-11 16:30N 44°58' E 020°17'5 9.4
2018-Jan-11 16:00N 45°02' E 020°22'510.5
2018-Jan-11 15:30N 45°06' E 020°18'510.4
2018-Jan-11 15:00N 45°10' E 020°13'5 9.9
2018-Jan-11 14:30N 45°10' E 020°06'610.5
2018-Jan-11 13:58N 45°11' E 019°58'9 0.2
2018-Jan-09 16:19N 45°11' E 020°11'2 4.5
2018-Jan-09 15:59N 45°10' E 020°13'3 4.6
2018-Jan-09 15:27N 45°09' E 020°16'6 4.5
2018-Jan-09 14:10N 45°04' E 020°21'1 4.7
2018-Jan-09 14:00N 45°03' E 020°21'2 4.7
2018-Jan-09 13:31N 45°01' E 020°22'2 4.0
2018-Jan-09 13:01N 44°60' E 020°19'2 4.4
2018-Jan-09 12:31N 44°58' E 020°17'2 4.5
2018-Jan-09 12:01N 44°56' E 020°18'2 4.7
2018-Jan-09 11:30N 44°54' E 020°20'2 4.9
2018-Jan-09 11:01N 44°52' E 020°22'2 4.6
2018-Jan-09 10:31N 44°51' E 020°25'2 4.8
2018-Jan-09 10:01N 44°50' E 020°28'2 4.2
2018-Jan-09 09:31N 44°50' E 020°31'2 4.7
2018-Jan-09 09:01N 44°51' E 020°34'2 4.5
2018-Jan-09 08:30N 44°51' E 020°37'2 3.5
2018-Jan-09 08:00N 44°50' E 020°39'0 0.0
2018-Jan-09 07:30N 44°50' E 020°39'0 0.0
2018-Jan-09 07:00N 44°50' E 020°39'0 0.0
2018-Jan-09 06:30N 44°50' E 020°39'0 0.0
2018-Jan-09 06:00N 44°50' E 020°39'0 0.0
2018-Jan-09 05:30N 44°50' E 020°39'0 0.0
2018-Jan-09 05:00N 44°50' E 020°39'0 0.0
2018-Jan-09 04:30N 44°50' E 020°39'0 0.0
2018-Jan-09 04:00N 44°50' E 020°39'  

Dump ship's entire track history